Time;durP1;ratioP1;P1;durP2;ratioP2;P2;SDS_P1;SDS_P2;PMS_P1;PMS_P2;Temp;Humidity;BMP_temperature;BMP_pressure;BME280_temperature;BME280_humidity;BME280_pressure;Samples;Min_cycle;Max_cycle;Signal;HPM_P1;HPM_P2
2021/09/16 00:01:14;;;;;;;11.55;9.75;;;;;;;13.36;62.83;100034.31;1641769;86;21095;-74
2021/09/16 00:03:41;;;;;;;16.97;10.63;;;;;;;13.19;63.79;100033.66;1652693;86;21027;-74
2021/09/16 00:06:09;;;;;;;24.15;10.95;;;;;;;12.97;64.51;100031.83;1652822;86;21031;-75
2021/09/16 00:08:36;;;;;;;22.73;11.05;;;;;;;12.79;65.23;100034.91;1652603;86;21010;-76
2021/09/16 00:11:03;;;;;;;17.92;11.30;;;;;;;12.69;65.28;100033.45;1648648;86;21510;-74
2021/09/16 00:13:30;;;;;;;17.85;9.73;;;;;;;12.65;65.76;100033.69;1721911;83;20946;-76
2021/09/16 00:15:58;;;;;;;12.93;7.90;;;;;;;12.60;65.59;100028.24;1716747;83;21023;-73
2021/09/16 00:18:24;;;;;;;14.10;9.68;;;;;;;12.57;65.52;100038.99;1725731;83;21048;-75
2021/09/16 00:20:52;;;;;;;20.32;12.15;;;;;;;12.54;65.52;100030.60;1725861;83;20973;-74
2021/09/16 00:23:19;;;;;;;16.95;10.28;;;;;;;12.48;66.00;100025.67;1704009;83;22092;-74
2021/09/16 00:25:47;;;;;;;18.42;11.93;;;;;;;12.44;66.18;100027.79;1724531;83;21022;-69
2021/09/16 00:28:13;;;;;;;22.20;14.30;;;;;;;12.43;66.51;100030.20;1703475;83;20999;-73
2021/09/16 00:30:40;;;;;;;22.10;13.28;;;;;;;12.41;66.54;100029.66;1717471;83;21011;-73
2021/09/16 00:33:08;;;;;;;18.35;12.45;;;;;;;12.41;66.71;100031.01;1704718;83;20936;-72
2021/09/16 00:35:35;;;;;;;23.12;11.38;;;;;;;12.37;66.58;100028.54;1714219;83;23355;-71
2021/09/16 00:38:01;;;;;;;18.30;12.23;;;;;;;12.33;66.94;100025.51;1722536;83;21075;-71
2021/09/16 00:40:29;;;;;;;19.52;11.45;;;;;;;12.33;67.33;100028.21;1718832;82;20951;-72
2021/09/16 00:42:56;;;;;;;20.25;11.25;;;;;;;12.32;67.30;100036.05;1718869;83;21019;-72
2021/09/16 00:45:23;;;;;;;22.65;12.85;;;;;;;12.33;67.77;100033.60;1718175;83;20961;-73
2021/09/16 00:47:50;;;;;;;21.25;13.08;;;;;;;12.36;68.10;100030.42;1725759;83;21217;-71
2021/09/16 00:50:22;;;;;;;17.95;13.53;;;;;;;12.43;68.30;100027.50;1729446;83;21019;-70
2021/09/16 00:52:49;;;;;;;20.00;13.65;;;;;;;12.52;68.29;100028.67;1705941;83;21555;-71
2021/09/16 00:55:16;;;;;;;19.90;13.80;;;;;;;12.59;68.18;100036.87;1696886;84;21133;-71
2021/09/16 00:57:50;;;;;;;18.80;13.45;;;;;;;12.68;68.19;100035.87;1724456;83;21043;-71
2021/09/16 01:00:18;;;;;;;19.85;12.80;;;;;;;12.73;68.17;100034.57;1725262;83;21165;-73
2021/09/16 01:02:44;;;;;;;17.52;11.43;;;;;;;12.76;67.60;100032.70;1725880;83;20936;-73
2021/09/16 01:05:11;;;;;;;13.15;8.18;;;;;;;12.79;67.07;100035.44;1725901;83;21539;-72
2021/09/16 01:07:39;;;;;;;11.33;7.62;;;;;;;12.80;66.03;100035.72;1719046;83;21509;-72
2021/09/16 01:10:08;;;;;;;9.60;7.40;;;;;;;12.71;65.78;100038.05;1701112;83;21078;-72
2021/09/16 01:12:38;;;;;;;16.15;8.33;;;;;;;12.32;66.20;100046.02;1725860;83;21018;-71
2021/09/16 01:15:09;;;;;;;17.75;12.68;;;;;;;11.72;67.98;100045.48;1695920;84;21295;-71
2021/09/16 01:17:37;;;;;;;16.73;12.37;;;;;;;11.41;69.95;100039.38;1725899;83;20976;-71
2021/09/16 01:20:06;;;;;;;17.95;11.20;;;;;;;11.36;71.01;100039.59;1724475;83;21058;-72
2021/09/16 01:22:36;;;;;;;17.50;11.65;;;;;;;11.44;70.65;100041.05;1718841;83;20967;-72
2021/09/16 01:25:04;;;;;;;20.88;12.18;;;;;;;11.51;70.39;100034.94;1718759;83;21112;-73
2021/09/16 01:27:31;;;;;;;20.80;12.58;;;;;;;11.60;69.98;100036.17;1705035;83;21062;-71
2021/09/16 01:29:57;;;;;;;15.30;10.23;;;;;;;11.71;69.90;100033.06;1717084;83;21488;-72
2021/09/16 01:32:24;;;;;;;13.68;8.83;;;;;;;11.83;69.14;100036.52;1704763;83;20955;-72
2021/09/16 01:34:50;;;;;;;16.70;11.45;;;;;;;11.94;68.69;100027.47;1704218;83;20988;-73
2021/09/16 01:37:18;;;;;;;21.52;13.10;;;;;;;11.98;68.43;100034.55;1704522;83;21012;-71
2021/09/16 01:39:45;;;;;;;21.60;11.20;;;;;;;12.01;68.79;100030.81;1696001;82;21083;-71
2021/09/16 01:42:13;;;;;;;19.75;12.13;;;;;;;12.01;68.86;100037.55;1732172;81;21042;-71
2021/09/16 01:44:43;;;;;;;17.95;12.55;;;;;;;12.03;69.92;100035.95;1731997;81;20927;-72
2021/09/16 01:47:10;;;;;;;16.90;11.18;;;;;;;12.03;71.28;100038.13;1669375;83;21123;-71
2021/09/16 01:49:36;;;;;;;19.77;12.95;;;;;;;12.00;72.08;100035.09;1689969;83;21847;-70
2021/09/16 01:52:06;;;;;;;20.35;11.95;;;;;;;11.97;72.57;100030.22;1725932;82;20978;-71
2021/09/16 01:54:32;;;;;;;19.48;10.38;;;;;;;11.93;73.25;100032.61;1742180;82;21068;-73
2021/09/16 01:57:00;;;;;;;17.92;12.35;;;;;;;11.86;73.57;100033.83;1739856;82;21488;-72
2021/09/16 01:59:26;;;;;;;21.55;14.63;;;;;;;11.84;73.96;100037.33;1712876;83;21067;-72
2021/09/16 02:01:53;;;;;;;26.10;16.62;;;;;;;11.82;74.40;100029.48;1699677;83;21218;-71
2021/09/16 02:04:19;;;;;;;22.77;13.03;;;;;;;11.90;74.83;100030.91;1728667;83;21042;-72
2021/09/16 02:06:45;;;;;;;19.60;13.68;;;;;;;11.96;74.86;100035.31;1728456;83;20932;-72
2021/09/16 02:09:12;;;;;;;25.35;14.83;;;;;;;11.99;74.89;100034.83;1728733;83;21007;-72
2021/09/16 02:11:38;;;;;;;18.70;12.70;;;;;;;12.05;74.84;100034.63;1697460;84;21026;-71
2021/09/16 02:14:06;;;;;;;23.80;13.48;;;;;;;12.09;74.74;100033.58;1720508;83;20951;-71
2021/09/16 02:16:34;;;;;;;24.00;13.53;;;;;;;12.09;74.71;100034.41;1728631;83;20940;-70
2021/09/16 02:19:02;;;;;;;18.17;12.68;;;;;;;12.09;74.69;100030.89;1728783;83;21563;-70
2021/09/16 02:21:30;;;;;;;18.85;12.28;;;;;;;12.08;74.70;100032.80;1724170;83;20909;-70
2021/09/16 02:23:57;;;;;;;18.42;13.13;;;;;;;12.10;74.45;100033.34;1714665;83;20996;-71
2021/09/16 02:26:23;;;;;;;19.45;12.20;;;;;;;12.12;74.08;100027.71;1713171;83;21191;-71
2021/09/16 02:28:49;;;;;;;16.93;10.72;;;;;;;12.20;73.54;100028.61;1696242;83;21047;-71
2021/09/16 02:31:15;;;;;;;16.27;11.60;;;;;;;12.28;72.78;100026.02;1725908;83;20991;-72
2021/09/16 02:33:42;;;;;;;17.75;13.25;;;;;;;12.36;71.61;100020.16;1726493;83;21023;-72
2021/09/16 02:36:08;;;;;;;22.05;14.65;;;;;;;12.41;70.75;100006.73;1726495;83;20947;-72
2021/09/16 02:38:35;;;;;;;23.20;14.05;;;;;;;12.45;70.23;100013.24;1703684;83;21504;-74
2021/09/16 02:41:02;;;;;;;22.55;15.90;;;;;;;12.48;70.06;100014.89;1710067;83;21539;-71
2021/09/16 02:43:28;;;;;;;25.97;16.07;;;;;;;12.47;69.74;100017.86;1714667;82;21117;-71
2021/09/16 02:45:56;;;;;;;27.65;17.15;;;;;;;12.43;69.99;100016.71;1735606;82;20991;-72
2021/09/16 02:48:22;;;;;;;22.15;14.25;;;;;;;12.41;70.28;100009.42;1737293;82;21074;-71
2021/09/16 02:50:49;;;;;;;16.07;12.37;;;;;;;12.40;70.13;100009.14;1692697;83;22053;-71
2021/09/16 02:53:17;;;;;;;22.70;11.60;;;;;;;12.33;69.75;100013.37;1691107;82;20990;-72
2021/09/16 02:55:43;;;;;;;20.57;11.95;;;;;;;12.24;69.77;100012.20;1699832;83;21567;-69
2021/09/16 02:58:10;;;;;;;16.90;12.40;;;;;;;12.18;69.89;100018.62;1717114;82;21007;-71
2021/09/16 03:00:38;;;;;;;14.43;11.45;;;;;;;11.95;69.60;100012.94;1708021;84;21046;-71
2021/09/16 03:03:04;;;;;;;28.87;16.12;;;;;;;11.71;70.17;100015.02;1707678;83;21054;-70
2021/09/16 03:05:31;;;;;;;24.00;13.35;;;;;;;11.57;70.40;100016.97;1678050;85;21045;-71
2021/09/16 03:07:57;;;;;;;29.57;14.90;;;;;;;11.49;71.17;100015.53;1730511;82;21123;-70
2021/09/16 03:10:25;;;;;;;18.92;12.73;;;;;;;11.54;71.79;100013.44;1729174;82;20975;-71
2021/09/16 03:12:54;;;;;;;19.67;11.18;;;;;;;11.61;71.83;100012.71;1737040;82;20955;-72
2021/09/16 03:15:20;;;;;;;14.90;10.50;;;;;;;11.57;71.38;100016.45;1730309;82;21049;-70
2021/09/16 03:17:46;;;;;;;20.50;9.58;;;;;;;11.41;71.49;100010.58;1728107;82;21075;-71
2021/09/16 03:20:15;;;;;;;20.20;10.23;;;;;;;11.28;71.96;100014.94;1728239;83;20969;-72
2021/09/16 03:22:41;;;;;;;25.17;13.53;;;;;;;11.23;72.14;100030.48;1728406;83;20979;-73
2021/09/16 03:25:09;;;;;;;34.08;13.65;;;;;;;11.01;72.89;100035.51;1712689;82;21034;-72
2021/09/16 03:27:36;;;;;;;22.20;13.75;;;;;;;10.81;73.69;100027.37;1737549;82;21983;-74
2021/09/16 03:30:06;;;;;;;27.07;16.35;;;;;;;10.80;74.39;100027.61;1737124;82;21556;-71
2021/09/16 03:32:33;;;;;;;29.37;11.33;;;;;;;10.90;74.84;100033.98;1731191;82;21043;-72
2021/09/16 03:35:02;;;;;;;22.58;12.18;;;;;;;10.99;74.87;100041.13;1734665;82;21026;-71
2021/09/16 03:37:28;;;;;;;17.80;11.97;;;;;;;10.94;74.93;100043.20;1726689;82;21511;-72
2021/09/16 03:39:55;;;;;;;22.07;12.20;;;;;;;10.93;75.13;100042.12;1739297;82;21101;-71
2021/09/16 03:42:22;;;;;;;22.22;12.93;;;;;;;11.01;75.21;100047.09;1744378;82;21042;-72
2021/09/16 03:44:49;;;;;;;18.42;11.03;;;;;;;11.03;75.25;100038.78;1743796;82;20986;-71
2021/09/16 03:47:15;;;;;;;12.20;7.92;;;;;;;11.09;74.84;100035.91;1741913;82;21503;-71
2021/09/16 03:49:41;;;;;;;10.43;6.53;;;;;;;11.21;74.08;100041.23;1710393;83;21030;-72
2021/09/16 03:52:09;;;;;;;12.15;7.95;;;;;;;11.33;72.29;100035.20;1689426;83;21090;-71
2021/09/16 03:54:38;;;;;;;16.42;9.85;;;;;;;11.46;70.61;100044.32;1734899;82;21515;-73
2021/09/16 03:57:05;;;;;;;13.62;9.18;;;;;;;11.51;71.27;100053.80;1743988;82;21604;-69
2021/09/16 03:59:32;;;;;;;11.18;6.65;;;;;;;11.42;71.16;100058.49;1744367;82;21489;-72
2021/09/16 04:02:01;;;;;;;14.00;9.30;;;;;;;11.36;69.92;100063.83;1744002;82;21059;-72
2021/09/16 04:04:27;;;;;;;7.78;4.50;;;;;;;11.37;69.83;100058.70;1744160;82;21169;-72
2021/09/16 04:06:54;;;;;;;9.75;4.50;;;;;;;11.41;67.33;100070.36;1744306;82;21015;-71
2021/09/16 04:09:21;;;;;;;6.47;4.58;;;;;;;11.53;66.26;100070.53;1744191;82;21505;-71
2021/09/16 04:11:48;;;;;;;5.20;3.60;;;;;;;11.70;64.06;100071.88;1742776;81;21051;-72
2021/09/16 04:14:15;;;;;;;4.75;4.17;;;;;;;11.86;63.31;100072.91;1716507;82;20990;-72
2021/09/16 04:16:43;;;;;;;6.17;4.33;;;;;;;11.94;61.52;100076.55;1741836;82;21101;-71
2021/09/16 04:19:09;;;;;;;9.90;3.42;;;;;;;11.96;63.67;100076.56;1739542;82;21489;-71
2021/09/16 04:21:36;;;;;;;8.63;3.25;;;;;;;11.91;62.34;100076.50;1702814;83;20996;-71
2021/09/16 04:24:05;;;;;;;8.83;5.58;;;;;;;11.95;61.27;100077.63;1729032;83;20927;-72
2021/09/16 04:26:32;;;;;;;7.55;4.60;;;;;;;11.99;62.86;100077.41;1728804;83;21106;-72
2021/09/16 04:28:59;;;;;;;8.28;4.35;;;;;;;11.97;62.96;100076.04;1728660;83;22335;-72
2021/09/16 04:31:25;;;;;;;9.08;4.47;;;;;;;11.95;61.22;100076.28;1728350;83;21018;-72
2021/09/16 04:33:53;;;;;;;10.90;5.80;;;;;;;11.97;59.81;100079.55;1741354;82;21013;-75
2021/09/16 04:36:19;;;;;;;9.95;6.22;;;;;;;12.01;59.56;100076.64;1726604;81;24030;-75
2021/09/16 04:38:46;;;;;;;6.55;4.78;;;;;;;12.08;60.27;100079.98;1718247;82;21045;-72
2021/09/16 04:41:12;;;;;;;5.97;4.87;;;;;;;12.13;60.60;100070.58;1739824;82;21263;-72
2021/09/16 04:43:39;;;;;;;12.30;7.70;;;;;;;12.20;60.56;100072.57;1707884;83;21066;-72
2021/09/16 04:46:05;;;;;;;8.33;5.55;;;;;;;12.26;61.29;100068.59;1659479;85;20982;-74
2021/09/16 04:48:32;;;;;;;7.85;4.30;;;;;;;12.30;60.95;100075.92;1707893;82;21565;-73
2021/09/16 04:50:58;;;;;;;10.70;5.85;;;;;;;12.38;60.57;100071.95;1687345;84;21612;-72
2021/09/16 04:53:26;;;;;;;15.13;4.97;;;;;;;12.44;61.42;100071.77;1710265;84;22176;-73
2021/09/16 04:55:53;;;;;;;9.65;5.37;;;;;;;12.52;61.88;100079.41;1670182;85;21057;-71
2021/09/16 04:58:19;;;;;;;16.42;10.82;;;;;;;12.58;61.39;100080.28;1721910;82;20942;-72
2021/09/16 05:00:45;;;;;;;13.00;9.25;;;;;;;12.63;62.06;100076.30;1720717;82;20960;-72
2021/09/16 05:03:12;;;;;;;22.62;7.72;;;;;;;12.68;62.37;100070.95;1706164;83;21483;-73
2021/09/16 05:05:38;;;;;;;7.17;4.78;;;;;;;12.72;62.72;100066.67;1682335;84;21217;-71
2021/09/16 05:08:04;;;;;;;14.07;7.75;;;;;;;12.76;62.25;100070.48;1739711;82;20982;-72
2021/09/16 05:10:32;;;;;;;17.12;9.55;;;;;;;12.82;61.69;100068.13;1685285;85;21574;-69
2021/09/16 05:13:00;;;;;;;17.65;7.37;;;;;;;12.87;63.86;100069.52;1685568;85;21519;-72
2021/09/16 05:15:28;;;;;;;18.57;7.60;;;;;;;12.92;63.73;100077.67;1680922;85;21069;-71
2021/09/16 05:17:56;;;;;;;19.02;8.43;;;;;;;12.96;62.06;100073.39;1718810;82;20996;-75
2021/09/16 05:20:22;;;;;;;25.85;9.70;;;;;;;13.02;63.89;100076.95;1699919;83;21636;-71
2021/09/16 05:22:51;;;;;;;24.95;10.38;;;;;;;13.04;63.97;100075.61;1724685;82;20970;-73
2021/09/16 05:25:17;;;;;;;23.32;13.65;;;;;;;13.08;63.42;100074.05;1737846;81;21030;-73
2021/09/16 05:27:45;;;;;;;16.95;10.13;;;;;;;13.16;62.52;100074.67;1737641;82;21524;-72
2021/09/16 05:30:12;;;;;;;9.73;6.15;;;;;;;13.24;61.67;100070.95;1737614;82;21067;-73
2021/09/16 05:32:39;;;;;;;14.75;7.92;;;;;;;13.34;60.68;100066.17;1732602;82;20959;-72
2021/09/16 05:35:07;;;;;;;12.07;5.37;;;;;;;13.44;60.20;100064.36;1730394;82;21445;-76
2021/09/16 05:37:35;;;;;;;16.37;5.45;;;;;;;13.58;59.74;100066.61;1715554;82;20931;-73
2021/09/16 05:40:03;;;;;;;21.20;7.00;;;;;;;13.68;59.12;100062.62;1742003;82;21522;-72
2021/09/16 05:42:30;;;;;;;13.68;4.70;;;;;;;13.78;58.79;100067.56;1741999;82;21133;-71
2021/09/16 05:44:56;;;;;;;12.88;4.75;;;;;;;13.87;57.98;100075.98;1683511;85;21083;-74
2021/09/16 05:47:22;;;;;;;15.53;5.22;;;;;;;13.94;57.28;100078.75;1729323;82;21080;-70
2021/09/16 05:49:49;;;;;;;11.95;5.05;;;;;;;14.02;56.75;100077.42;1685240;83;21536;-72
2021/09/16 05:52:16;;;;;;;13.38;5.62;;;;;;;14.09;56.44;100082.08;1684444;82;21028;-73
2021/09/16 05:54:42;;;;;;;76.62;59.15;;;;;;;14.18;56.18;100076.44;1711926;83;22104;-73
2021/09/16 05:57:09;;;;;;;37.88;23.55;;;;;;;14.25;55.53;100072.11;1700711;83;21014;-73
2021/09/16 05:59:36;;;;;;;15.72;9.88;;;;;;;14.32;55.36;100073.52;1698143;84;21507;-74
2021/09/16 06:02:03;;;;;;;15.48;9.75;;;;;;;14.39;55.13;100076.80;1682500;85;21115;-75
2021/09/16 06:04:30;;;;;;;15.35;8.23;;;;;;;14.48;54.39;100080.38;1687800;84;21078;-73
2021/09/16 06:07:00;;;;;;;19.23;7.95;;;;;;;14.56;54.06;100079.84;1723384;82;21073;-79
2021/09/16 06:09:25;;;;;;;14.70;8.13;;;;;;;14.62;54.00;100085.02;1728374;82;21554;-73
2021/09/16 06:11:54;;;;;;;23.00;8.33;;;;;;;14.69;53.89;100088.27;1716258;82;21087;-74
2021/09/16 06:14:20;;;;;;;27.48;9.28;;;;;;;14.77;53.61;100088.30;1712533;83;21043;-74
2021/09/16 06:16:50;;;;;;;21.85;9.53;;;;;;;14.84;53.30;100090.20;1714485;82;20979;-72
2021/09/16 06:19:20;;;;;;;14.85;7.87;;;;;;;14.90;52.75;100085.08;1663074;83;21086;-72
2021/09/16 06:21:46;;;;;;;15.10;7.70;;;;;;;14.98;52.42;100089.14;1683584;85;20947;-72
2021/09/16 06:24:14;;;;;;;27.02;7.12;;;;;;;15.04;51.86;100086.17;1690481;82;21067;-72
2021/09/16 06:26:41;;;;;;;27.13;8.93;;;;;;;15.14;51.65;100091.61;1712387;83;21048;-74
2021/09/16 06:29:08;;;;;;;24.12;9.38;;;;;;;15.21;51.26;100089.97;1702944;83;21123;-72
2021/09/16 06:31:35;;;;;;;23.75;7.08;;;;;;;15.28;50.94;100089.98;1716429;82;21190;-73
2021/09/16 06:34:01;;;;;;;19.17;9.95;;;;;;;15.36;50.70;100090.52;1685165;85;21094;-73
2021/09/16 06:36:27;;;;;;;27.25;8.45;;;;;;;15.42;50.29;100086.19;1741392;82;21105;-73
2021/09/16 06:38:55;;;;;;;22.75;8.73;;;;;;;15.50;50.00;100094.30;1692444;82;20964;-71
2021/09/16 06:41:21;;;;;;;20.82;8.90;;;;;;;15.57;49.54;100088.92;1698415;83;21467;-74
2021/09/16 06:43:48;;;;;;;30.70;10.15;;;;;;;15.65;49.08;100094.33;1727261;83;21039;-73
2021/09/16 06:46:15;;;;;;;21.50;9.85;;;;;;;15.70;48.70;100095.14;1727426;83;21126;-73
2021/09/16 06:48:43;;;;;;;34.03;12.43;;;;;;;15.77;48.49;100091.34;1727406;83;21489;-73
2021/09/16 06:51:09;;;;;;;26.77;10.58;;;;;;;15.85;48.46;100090.23;1727392;83;20941;-73
2021/09/16 06:53:36;;;;;;;32.05;11.08;;;;;;;15.91;48.42;100098.63;1727705;83;21518;-74
2021/09/16 06:56:03;;;;;;;27.42;10.70;;;;;;;15.98;48.07;100090.19;1727353;83;21089;-74
2021/09/16 06:58:30;;;;;;;26.02;9.48;;;;;;;16.04;47.85;100095.33;1706200;83;20945;-76
2021/09/16 07:00:57;;;;;;;41.33;10.53;;;;;;;16.11;47.17;100095.05;1727166;82;21004;-74
2021/09/16 07:03:23;;;;;;;32.10;11.38;;;;;;;16.18;47.33;100094.75;1727167;82;21130;-73
2021/09/16 07:05:50;;;;;;;13.03;6.20;;;;;;;16.24;46.97;100105.32;1706839;83;21049;-74
2021/09/16 07:08:16;;;;;;;15.65;6.33;;;;;;;16.30;45.78;100104.22;1706414;83;22170;-73
2021/09/16 07:10:43;;;;;;;24.65;6.72;;;;;;;16.38;45.67;100101.46;1727342;83;20874;-73
2021/09/16 07:13:11;;;;;;;20.35;6.58;;;;;;;16.42;45.95;100097.91;1727470;83;20964;-73
2021/09/16 07:15:39;;;;;;;28.87;8.25;;;;;;;16.50;46.23;100102.75;1727284;82;20918;-73
2021/09/16 07:18:09;;;;;;;27.20;9.50;;;;;;;16.57;46.41;100109.25;1727439;82;21037;-73
2021/09/16 07:20:37;;;;;;;36.17;11.90;;;;;;;16.66;46.07;100105.43;1727449;83;20997;-74
2021/09/16 07:23:03;;;;;;;32.83;9.50;;;;;;;16.76;46.16;100110.81;1706875;83;20926;-76
2021/09/16 07:25:30;;;;;;;38.17;10.50;;;;;;;16.83;45.47;100106.71;1697575;84;20959;-77
2021/09/16 07:27:58;;;;;;;30.65;8.83;;;;;;;16.91;45.53;100106.66;1727439;82;21004;-76
2021/09/16 07:30:25;;;;;;;35.23;10.38;;;;;;;16.98;45.50;100109.31;1723104;81;21018;-73
2021/09/16 07:32:51;;;;;;;40.25;11.75;;;;;;;17.06;45.31;100103.84;1727381;83;21135;-72
2021/09/16 07:35:18;;;;;;;41.95;12.58;;;;;;;17.14;45.20;100105.13;1727052;82;21005;-73
2021/09/16 07:37:44;;;;;;;35.73;10.05;;;;;;;17.22;45.30;100106.70;1728523;82;21502;-76
2021/09/16 07:40:13;;;;;;;25.08;9.53;;;;;;;17.31;45.65;100104.98;1727306;83;21502;-73
2021/09/16 07:42:40;;;;;;;27.80;8.63;;;;;;;17.41;45.46;100110.89;1709785;82;21015;-73
2021/09/16 07:45:08;;;;;;;17.85;8.10;;;;;;;17.46;44.85;100114.16;1713770;83;23356;-74
2021/09/16 07:47:34;;;;;;;16.05;7.92;;;;;;;17.50;45.03;100111.94;1721142;83;21042;-73
2021/09/16 07:50:01;;;;;;;19.42;7.78;;;;;;;17.54;44.53;100110.27;1713054;83;21006;-74
2021/09/16 07:52:27;;;;;;;17.92;6.12;;;;;;;17.55;44.41;100102.92;1708709;83;21279;-74
2021/09/16 07:54:54;;;;;;;18.80;6.62;;;;;;;17.56;44.39;100107.23;1728963;83;21590;-78
2021/09/16 07:57:21;;;;;;;13.22;7.60;;;;;;;17.58;44.55;100107.77;1702918;83;22140;-76
2021/09/16 07:59:47;;;;;;;23.40;7.67;;;;;;;17.64;44.62;100106.13;1723115;83;21579;-75
2021/09/16 08:02:17;;;;;;;12.00;5.85;;;;;;;17.73;44.57;100107.12;1709234;83;20999;-75
2021/09/16 08:04:44;;;;;;;10.48;6.22;;;;;;;17.81;44.20;100100.23;1693734;83;21088;-72
2021/09/16 08:07:10;;;;;;;8.55;5.80;;;;;;;17.88;44.02;100099.36;1710127;83;21607;-72
2021/09/16 08:09:40;;;;;;;9.40;5.55;;;;;;;17.95;43.94;100100.36;1718644;82;22243;-74
2021/09/16 08:12:07;;;;;;;13.18;5.28;;;;;;;18.04;43.58;100096.72;1738008;81;21117;-73
2021/09/16 08:14:34;;;;;;;10.93;4.47;;;;;;;18.08;42.98;100094.26;1741125;82;21573;-73
2021/09/16 08:17:04;;;;;;;8.40;4.20;;;;;;;18.13;43.04;100096.34;1738736;81;21017;-73
2021/09/16 08:19:31;;;;;;;10.82;4.40;;;;;;;18.20;42.92;100096.82;1718555;82;21059;-72
2021/09/16 08:22:00;;;;;;;13.32;4.70;;;;;;;18.29;43.05;100096.98;1714672;83;20960;-74
2021/09/16 08:24:27;;;;;;;15.05;7.67;;;;;;;18.38;42.87;100093.06;1736237;81;21047;-74
2021/09/16 08:26:53;;;;;;;14.33;5.45;;;;;;;18.47;42.73;100099.48;1739887;82;21051;-71
2021/09/16 08:29:19;;;;;;;7.03;4.60;;;;;;;18.54;42.53;100095.34;1742176;80;21073;-73
2021/09/16 08:31:46;;;;;;;7.58;4.17;;;;;;;18.62;42.51;100103.41;1744512;80;20985;-71
2021/09/16 08:34:13;;;;;;;18.60;9.50;;;;;;;18.71;42.40;100096.20;1716416;82;21111;-72
2021/09/16 08:36:40;;;;;;;9.45;5.47;;;;;;;18.76;41.99;100094.77;1716135;82;21622;-72
2021/09/16 08:39:07;;;;;;;11.00;4.85;;;;;;;18.80;41.62;100091.70;1741444;82;21042;-71
2021/09/16 08:41:36;;;;;;;12.30;5.10;;;;;;;18.89;42.07;100091.87;1710643;82;20991;-74
2021/09/16 08:44:04;;;;;;;5.75;3.77;;;;;;;18.94;41.88;100093.98;1680190;83;21589;-74
2021/09/16 08:46:31;;;;;;;7.85;3.52;;;;;;;19.02;41.58;100094.67;1702779;83;21905;-71
2021/09/16 08:48:57;;;;;;;3.80;3.35;;;;;;;19.06;41.51;100087.52;1726216;82;21005;-74
2021/09/16 08:51:25;;;;;;;6.65;3.87;;;;;;;19.11;41.46;100088.80;1721809;83;20939;-74
2021/09/16 08:53:53;;;;;;;7.62;4.40;;;;;;;19.16;41.44;100075.64;1709766;82;20991;-74
2021/09/16 08:56:19;;;;;;;8.18;3.12;;;;;;;19.26;41.59;100089.12;1679762;83;21536;-74
2021/09/16 08:58:46;;;;;;;8.48;2.92;;;;;;;19.36;41.42;100092.23;1725604;82;21143;-73
2021/09/16 09:01:16;;;;;;;11.35;2.52;;;;;;;19.44;41.13;100087.48;1686985;83;21038;-80
2021/09/16 09:03:43;;;;;;;4.62;2.87;;;;;;;19.53;41.19;100086.50;1715327;83;20978;-75
2021/09/16 09:06:28;;;;;;;5.15;2.05;;;;;;;19.63;41.03;100089.61;1693484;83;21591;-74
2021/09/16 09:09:15;;;;;;;8.90;2.17;;;;;;;19.69;40.47;100087.60;1718883;83;20955;-75
2021/09/16 09:12:00;;;;;;;7.42;2.70;;;;;;;19.65;40.51;100085.22;1720877;82;21229;-77
2021/09/16 09:14:37;;;;;;;3.85;2.75;;;;;;;19.71;40.91;100078.57;1712784;83;20905;-76
2021/09/16 09:17:23;;;;;;;3.50;2.52;;;;;;;19.84;40.48;100083.23;1725397;83;20991;-79
2021/09/16 09:19:51;;;;;;;10.30;3.37;;;;;;;19.92;40.03;100083.89;1728115;83;21033;-79
2021/09/16 09:22:19;;;;;;;12.90;3.70;;;;;;;20.02;40.01;100084.52;1720511;83;21090;-75
2021/09/16 09:24:47;;;;;;;4.53;2.75;;;;;;;20.11;39.62;100090.63;1700276;82;21582;-77
2021/09/16 09:27:28;;;;;;;6.60;2.92;;;;;;;20.13;39.68;100081.03;1724729;82;20999;-76
2021/09/16 09:30:17;;;;;;;6.22;2.70;;;;;;;20.17;39.51;100079.31;1699106;82;21067;-79
2021/09/16 09:32:50;;;;;;;4.85;3.00;;;;;;;20.17;39.30;100080.67;1718550;82;21093;-77
2021/09/16 09:35:38;;;;;;;6.20;2.67;;;;;;;20.11;39.45;100084.61;1720283;82;21091;-81
2021/09/16 09:38:21;;;;;;;3.22;2.20;;;;;;;20.16;39.61;100074.14;1699334;82;21298;-73
2021/09/16 09:40:55;;;;;;;3.95;2.05;;;;;;;20.21;39.29;100069.94;1719084;81;21296;-81
2021/09/16 09:43:37;;;;;;;4.17;2.25;;;;;;;20.23;39.38;100072.64;1713427;81;20979;-74
2021/09/16 09:46:17;;;;;;;4.13;2.50;;;;;;;20.30;39.38;100076.31;1710149;82;21979;-73
2021/09/16 09:49:01;;;;;;;5.45;2.00;;;;;;;20.42;39.22;100076.09;1712295;83;21121;-73
2021/09/16 09:51:52;;;;;;;3.80;2.33;;;;;;;20.50;39.07;100070.45;1711114;82;21104;-72
2021/09/16 09:54:27;;;;;;;3.20;2.20;;;;;;;20.56;38.81;100069.23;1689488;83;21095;-73
2021/09/16 09:57:14;;;;;;;4.58;3.02;;;;;;;20.54;38.87;100063.26;1660864;85;21018;-73
2021/09/16 10:00:07;;;;;;;2.65;2.35;;;;;;;20.51;38.87;100061.15;1712014;82;21073;-74
2021/09/16 10:02:52;;;;;;;5.25;2.52;;;;;;;20.57;39.25;100057.20;1707560;82;21099;-78
2021/09/16 10:05:34;;;;;;;3.37;2.40;;;;;;;20.61;39.02;100053.28;1689779;83;21299;-74
2021/09/16 10:08:11;;;;;;;3.92;1.57;;;;;;;20.61;39.02;100053.28;1689230;83;21067;-74
2021/09/16 10:10:51;;;;;;;2.75;2.37;;;;;;;20.63;39.02;100043.64;1712155;83;21531;-76
2021/09/16 10:13:21;;;;;;;3.25;1.90;;;;;;;20.67;39.15;100048.74;1717949;82;20987;-79
2021/09/16 10:15:51;;;;;;;2.92;1.67;;;;;;;20.76;39.01;100046.92;1692996;82;21045;-77
2021/09/16 10:18:20;;;;;;;2.62;2.05;;;;;;;20.87;38.79;100051.57;1682594;84;21024;-77
2021/09/16 10:20:47;;;;;;;5.78;2.17;;;;;;;20.93;38.76;100041.33;1711850;82;21599;-77
2021/09/16 10:23:14;;;;;;;2.55;1.60;;;;;;;20.95;38.96;100037.73;1711589;83;21102;-73
2021/09/16 10:25:48;;;;;;;5.58;1.37;;;;;;;21.07;38.49;100027.03;1708449;82;21515;-76
2021/09/16 10:28:16;;;;;;;3.60;1.67;;;;;;;21.14;38.75;100044.68;1689740;83;21051;-72
2021/09/16 10:30:52;;;;;;;2.52;1.85;;;;;;;21.24;38.62;100029.94;1703939;82;21079;-78
2021/09/16 10:33:28;;;;;;;2.42;1.70;;;;;;;21.30;38.11;100037.69;1691998;83;21069;-79
2021/09/16 10:36:05;;;;;;;3.72;1.50;;;;;;;21.34;38.31;100037.08;1706503;83;20978;-77
2021/09/16 10:38:48;;;;;;;1.70;1.45;;;;;;;21.42;38.31;100038.50;1712324;83;21021;-77
2021/09/16 10:41:29;;;;;;;3.40;2.15;;;;;;;21.51;38.26;100039.35;1706404;83;20966;-77
2021/09/16 10:44:08;;;;;;;7.33;2.22;;;;;;;21.62;38.15;100039.34;1676931;85;21340;-80
2021/09/16 10:46:46;;;;;;;3.65;2.05;;;;;;;21.70;37.87;100040.49;1679171;84;21102;-76
2021/09/16 10:49:27;;;;;;;2.42;1.82;;;;;;;21.78;37.56;100037.53;1684475;84;21028;-79
2021/09/16 10:52:05;;;;;;;4.50;2.00;;;;;;;21.76;37.52;100035.13;1646787;86;21065;-79
2021/09/16 10:54:44;;;;;;;2.50;2.02;;;;;;;21.75;37.74;100030.22;1681193;84;21107;-76
2021/09/16 10:57:18;;;;;;;2.83;2.25;;;;;;;21.87;37.58;100028.23;1700671;84;21761;-77
2021/09/16 10:59:55;;;;;;;4.20;2.12;;;;;;;22.01;37.29;100032.28;1682455;84;21071;-78
2021/09/16 11:02:24;;;;;;;3.52;2.27;;;;;;;22.16;37.20;100023.61;1682298;84;21000;-76
2021/09/16 11:05:05;;;;;;;15.90;3.70;;;;;;;22.32;36.82;100033.56;1702762;84;21016;-78
2021/09/16 11:07:38;;;;;;;4.80;2.22;;;;;;;22.40;36.68;100024.54;1702786;84;21557;-76
2021/09/16 11:10:24;;;;;;;5.05;2.12;;;;;;;22.45;36.50;100034.80;1706028;82;20972;-79
2021/09/16 11:13:05;;;;;;;3.75;2.25;;;;;;;22.44;36.59;100029.66;1732111;82;20947;-79
2021/09/16 11:15:34;;;;;;;5.15;1.55;;;;;;;22.41;36.68;100033.83;1728880;82;21636;-77
2021/09/16 11:18:13;;;;;;;7.53;2.33;;;;;;;22.40;36.57;100028.66;1732135;82;21015;-77
2021/09/16 11:20:43;;;;;;;2.30;1.90;;;;;;;22.44;36.67;100023.61;1727851;82;20992;-79
2021/09/16 11:23:11;;;;;;;3.12;1.50;;;;;;;22.43;36.51;100019.81;1726267;82;21026;-77
2021/09/16 11:25:41;;;;;;;3.10;2.12;;;;;;;22.31;36.79;100019.05;1732055;82;21014;-78